Portada
METAR-TAF:

METAR-TAF

Aeroports :

Lahaina, Hawaii, Estats Units d'Amèrica

latitud: 21-01N, longitud: 156-38W, altitud: 40 m

METAR: manca

Hora: 01:04 (11:04 UTC)

Pronòstic

L'informe es va fer fa 11 hores i 39 minuts, a les 23:25 UTC
Pronòstic vàlid del 23 a les 00 UTC al 23 a les 24 UTC
Vent 5 kt amb direcció variable
Visibilitat: 10 km
Núvols disperses a una alçada de 3000 ft
Núvols disperses a una alçada de 5000 ft

TAF: PHJH 222325Z 2300/2324 VRB05KT P6SM SCT030 SCT050 AMD NOT SKED AFT 230400

Observacions i pronòstics meteorològics de més de 4000 aeroports (METAR i TAF).

Les estacions disponibles són els punts grocs i vermells al mapa.

Posi el ratolí al punt desitjat per veure el nom de l'estació.

Feu clic per veure les observacions i els pronòstics meteorològics.

Per canviar el mapa: feu clic els botons verds amb una creu de color negre per apropar; al botó verd amb un guió per allunyar la imatge; o en les fletxes verdes per a mapes adjacents.


METAR-TAF: